sensor_id;sensor_type;location;lat;lon;timestamp;P1;durP1;ratioP1;P2;durP2;ratioP2
5121;SDS011;2563;52.242;7.956;2022-12-07T00:01:34;17.30;;;9.00;;
5121;SDS011;2563;52.242;7.956;2022-12-07T00:04:02;16.67;;;8.23;;
5121;SDS011;2563;52.242;7.956;2022-12-07T00:06:32;16.20;;;8.30;;
5121;SDS011;2563;52.242;7.956;2022-12-07T00:08:59;15.60;;;8.47;;
5121;SDS011;2563;52.242;7.956;2022-12-07T00:11:24;16.33;;;7.40;;
5121;SDS011;2563;52.242;7.956;2022-12-07T00:13:51;13.90;;;7.27;;
5121;SDS011;2563;52.242;7.956;2022-12-07T00:16:20;17.20;;;7.33;;
5121;SDS011;2563;52.242;7.956;2022-12-07T00:18:46;13.43;;;6.77;;
5121;SDS011;2563;52.242;7.956;2022-12-07T00:21:13;18.63;;;6.90;;
5121;SDS011;2563;52.242;7.956;2022-12-07T00:23:44;15.57;;;7.13;;
5121;SDS011;2563;52.242;7.956;2022-12-07T00:28:54;13.57;;;6.67;;
5121;SDS011;2563;52.242;7.956;2022-12-07T00:31:23;12.97;;;6.03;;
5121;SDS011;2563;52.242;7.956;2022-12-07T00:33:50;14.20;;;6.00;;
5121;SDS011;2563;52.242;7.956;2022-12-07T00:36:17;12.47;;;5.63;;
5121;SDS011;2563;52.242;7.956;2022-12-07T00:38:44;13.30;;;5.87;;
5121;SDS011;2563;52.242;7.956;2022-12-07T00:41:11;15.83;;;5.10;;
5121;SDS011;2563;52.242;7.956;2022-12-07T00:43:37;10.83;;;5.27;;
5121;SDS011;2563;52.242;7.956;2022-12-07T00:46:03;13.17;;;4.90;;
5121;SDS011;2563;52.242;7.956;2022-12-07T00:48:29;12.17;;;5.20;;
5121;SDS011;2563;52.242;7.956;2022-12-07T00:50:54;11.27;;;4.87;;
5121;SDS011;2563;52.242;7.956;2022-12-07T00:53:20;10.93;;;5.67;;
5121;SDS011;2563;52.242;7.956;2022-12-07T00:55:46;11.87;;;5.00;;
5121;SDS011;2563;52.242;7.956;2022-12-07T00:58:11;11.50;;;5.60;;
5121;SDS011;2563;52.242;7.956;2022-12-07T01:00:38;10.63;;;5.13;;
5121;SDS011;2563;52.242;7.956;2022-12-07T01:03:05;13.27;;;5.87;;
5121;SDS011;2563;52.242;7.956;2022-12-07T01:05:31;9.50;;;4.33;;
5121;SDS011;2563;52.242;7.956;2022-12-07T01:07:56;10.93;;;5.47;;
5121;SDS011;2563;52.242;7.956;2022-12-07T01:10:22;12.33;;;5.43;;
5121;SDS011;2563;52.242;7.956;2022-12-07T01:12:48;10.93;;;4.90;;
5121;SDS011;2563;52.242;7.956;2022-12-07T01:15:13;11.17;;;5.50;;
5121;SDS011;2563;52.242;7.956;2022-12-07T01:17:39;12.20;;;5.40;;
5121;SDS011;2563;52.242;7.956;2022-12-07T01:20:05;12.87;;;5.83;;
5121;SDS011;2563;52.242;7.956;2022-12-07T01:22:34;11.03;;;5.33;;
5121;SDS011;2563;52.242;7.956;2022-12-07T01:25:02;10.47;;;4.90;;
5121;SDS011;2563;52.242;7.956;2022-12-07T01:27:27;10.70;;;5.00;;
5121;SDS011;2563;52.242;7.956;2022-12-07T01:29:53;11.00;;;4.90;;
5121;SDS011;2563;52.242;7.956;2022-12-07T01:32:18;12.83;;;5.00;;
5121;SDS011;2563;52.242;7.956;2022-12-07T01:34:43;15.53;;;5.00;;
5121;SDS011;2563;52.242;7.956;2022-12-07T01:37:09;9.13;;;4.70;;
5121;SDS011;2563;52.242;7.956;2022-12-07T01:39:34;10.13;;;4.70;;
5121;SDS011;2563;52.242;7.956;2022-12-07T01:42:00;12.30;;;4.63;;
5121;SDS011;2563;52.242;7.956;2022-12-07T01:44:29;10.57;;;5.17;;
5121;SDS011;2563;52.242;7.956;2022-12-07T01:47:00;13.87;;;4.63;;
5121;SDS011;2563;52.242;7.956;2022-12-07T01:49:29;9.47;;;4.73;;
5121;SDS011;2563;52.242;7.956;2022-12-07T01:54:40;10.20;;;4.27;;
5121;SDS011;2563;52.242;7.956;2022-12-07T01:57:07;11.83;;;5.17;;
5121;SDS011;2563;52.242;7.956;2022-12-07T01:59:33;8.60;;;4.20;;
5121;SDS011;2563;52.242;7.956;2022-12-07T02:01:59;10.73;;;4.90;;
5121;SDS011;2563;52.242;7.956;2022-12-07T02:04:29;9.70;;;4.10;;
5121;SDS011;2563;52.242;7.956;2022-12-07T02:06:55;12.50;;;4.50;;
5121;SDS011;2563;52.242;7.956;2022-12-07T02:09:22;8.60;;;4.30;;
5121;SDS011;2563;52.242;7.956;2022-12-07T02:11:47;12.00;;;3.57;;
5121;SDS011;2563;52.242;7.956;2022-12-07T02:14:13;8.03;;;3.67;;
5121;SDS011;2563;52.242;7.956;2022-12-07T02:16:42;12.83;;;4.50;;
5121;SDS011;2563;52.242;7.956;2022-12-07T02:24:35;8.43;;;3.77;;
5121;SDS011;2563;52.242;7.956;2022-12-07T02:30:13;9.30;;;2.90;;
5121;SDS011;2563;52.242;7.956;2022-12-07T02:37:58;7.13;;;3.33;;
5121;SDS011;2563;52.242;7.956;2022-12-07T02:43:30;8.00;;;2.93;;
5121;SDS011;2563;52.242;7.956;2022-12-07T02:46:08;9.30;;;2.83;;
5121;SDS011;2563;52.242;7.956;2022-12-07T02:48:47;7.50;;;2.40;;
5121;SDS011;2563;52.242;7.956;2022-12-07T02:51:13;7.20;;;3.43;;
5121;SDS011;2563;52.242;7.956;2022-12-07T02:53:39;8.50;;;2.83;;
5121;SDS011;2563;52.242;7.956;2022-12-07T03:06:49;5.40;;;2.17;;
5121;SDS011;2563;52.242;7.956;2022-12-07T03:09:44;7.03;;;2.63;;
5121;SDS011;2563;52.242;7.956;2022-12-07T03:12:12;9.47;;;2.70;;
5121;SDS011;2563;52.242;7.956;2022-12-07T03:14:48;9.00;;;2.13;;
5121;SDS011;2563;52.242;7.956;2022-12-07T03:17:24;6.10;;;2.07;;
5121;SDS011;2563;52.242;7.956;2022-12-07T03:19:53;14.60;;;2.93;;
5121;SDS011;2563;52.242;7.956;2022-12-07T03:22:22;7.13;;;2.23;;
5121;SDS011;2563;52.242;7.956;2022-12-07T03:24:52;11.97;;;2.73;;
5121;SDS011;2563;52.242;7.956;2022-12-07T03:27:32;6.67;;;2.30;;
5121;SDS011;2563;52.242;7.956;2022-12-07T03:30:06;5.20;;;2.00;;
5121;SDS011;2563;52.242;7.956;2022-12-07T03:35:33;6.10;;;2.07;;
5121;SDS011;2563;52.242;7.956;2022-12-07T03:38:23;6.13;;;2.33;;
5121;SDS011;2563;52.242;7.956;2022-12-07T03:41:05;6.90;;;1.90;;
5121;SDS011;2563;52.242;7.956;2022-12-07T03:43:34;8.37;;;2.10;;
5121;SDS011;2563;52.242;7.956;2022-12-07T03:46:06;6.67;;;1.60;;
5121;SDS011;2563;52.242;7.956;2022-12-07T03:48:46;8.00;;;2.00;;
5121;SDS011;2563;52.242;7.956;2022-12-07T03:51:27;8.90;;;2.13;;
5121;SDS011;2563;52.242;7.956;2022-12-07T03:54:02;7.87;;;2.50;;
5121;SDS011;2563;52.242;7.956;2022-12-07T03:56:35;9.90;;;2.70;;
5121;SDS011;2563;52.242;7.956;2022-12-07T03:59:01;5.90;;;1.97;;
5121;SDS011;2563;52.242;7.956;2022-12-07T04:01:26;9.63;;;1.83;;
5121;SDS011;2563;52.242;7.956;2022-12-07T04:03:52;9.93;;;2.20;;
5121;SDS011;2563;52.242;7.956;2022-12-07T04:06:17;5.50;;;1.80;;
5121;SDS011;2563;52.242;7.956;2022-12-07T04:08:43;6.80;;;2.40;;
5121;SDS011;2563;52.242;7.956;2022-12-07T04:11:08;5.30;;;1.73;;
5121;SDS011;2563;52.242;7.956;2022-12-07T04:13:34;5.53;;;1.97;;
5121;SDS011;2563;52.242;7.956;2022-12-07T04:16:19;5.40;;;1.93;;
5121;SDS011;2563;52.242;7.956;2022-12-07T04:18:45;8.67;;;1.53;;
5121;SDS011;2563;52.242;7.956;2022-12-07T04:21:11;6.20;;;2.23;;
5121;SDS011;2563;52.242;7.956;2022-12-07T04:23:36;8.67;;;1.80;;
5121;SDS011;2563;52.242;7.956;2022-12-07T04:26:01;8.07;;;2.00;;
5121;SDS011;2563;52.242;7.956;2022-12-07T04:28:27;5.53;;;1.67;;
5121;SDS011;2563;52.242;7.956;2022-12-07T04:30:52;6.63;;;2.20;;
5121;SDS011;2563;52.242;7.956;2022-12-07T04:33:17;5.70;;;1.57;;
5121;SDS011;2563;52.242;7.956;2022-12-07T04:35:43;6.37;;;2.10;;
5121;SDS011;2563;52.242;7.956;2022-12-07T04:38:08;8.07;;;2.10;;
5121;SDS011;2563;52.242;7.956;2022-12-07T04:40:34;4.87;;;1.80;;
5121;SDS011;2563;52.242;7.956;2022-12-07T04:42:59;4.60;;;1.70;;
5121;SDS011;2563;52.242;7.956;2022-12-07T04:45:25;3.60;;;1.23;;
5121;SDS011;2563;52.242;7.956;2022-12-07T04:47:50;4.83;;;1.60;;
5121;SDS011;2563;52.242;7.956;2022-12-07T04:50:15;4.00;;;1.23;;
5121;SDS011;2563;52.242;7.956;2022-12-07T04:52:41;5.73;;;1.80;;
5121;SDS011;2563;52.242;7.956;2022-12-07T04:55:06;6.70;;;1.70;;
5121;SDS011;2563;52.242;7.956;2022-12-07T04:57:32;9.57;;;1.87;;
5121;SDS011;2563;52.242;7.956;2022-12-07T04:59:57;7.67;;;1.60;;
5121;SDS011;2563;52.242;7.956;2022-12-07T05:02:22;4.17;;;1.20;;
5121;SDS011;2563;52.242;7.956;2022-12-07T05:04:48;4.60;;;1.63;;
5121;SDS011;2563;52.242;7.956;2022-12-07T05:07:13;3.97;;;1.43;;
5121;SDS011;2563;52.242;7.956;2022-12-07T05:09:38;7.73;;;1.50;;
5121;SDS011;2563;52.242;7.956;2022-12-07T05:12:04;6.83;;;2.60;;
5121;SDS011;2563;52.242;7.956;2022-12-07T05:14:29;4.80;;;1.50;;
5121;SDS011;2563;52.242;7.956;2022-12-07T05:16:55;5.53;;;1.40;;
5121;SDS011;2563;52.242;7.956;2022-12-07T05:19:20;6.80;;;1.77;;
5121;SDS011;2563;52.242;7.956;2022-12-07T05:21:46;7.77;;;1.63;;
5121;SDS011;2563;52.242;7.956;2022-12-07T05:24:12;6.67;;;1.83;;
5121;SDS011;2563;52.242;7.956;2022-12-07T05:26:38;5.03;;;1.33;;
5121;SDS011;2563;52.242;7.956;2022-12-07T05:29:04;4.80;;;1.37;;
5121;SDS011;2563;52.242;7.956;2022-12-07T05:31:30;6.60;;;1.77;;
5121;SDS011;2563;52.242;7.956;2022-12-07T05:33:56;9.00;;;1.70;;
5121;SDS011;2563;52.242;7.956;2022-12-07T05:36:22;6.37;;;1.50;;
5121;SDS011;2563;52.242;7.956;2022-12-07T05:38:48;6.23;;;1.30;;
5121;SDS011;2563;52.242;7.956;2022-12-07T05:41:17;13.43;;;1.50;;
5121;SDS011;2563;52.242;7.956;2022-12-07T05:44:02;9.57;;;1.33;;
5121;SDS011;2563;52.242;7.956;2022-12-07T05:46:28;6.60;;;1.70;;
5121;SDS011;2563;52.242;7.956;2022-12-07T05:48:54;4.80;;;1.50;;
5121;SDS011;2563;52.242;7.956;2022-12-07T05:51:19;4.50;;;1.20;;
5121;SDS011;2563;52.242;7.956;2022-12-07T05:53:45;12.00;;;1.40;;
5121;SDS011;2563;52.242;7.956;2022-12-07T05:56:10;6.23;;;1.00;;
5121;SDS011;2563;52.242;7.956;2022-12-07T05:58:36;5.13;;;1.23;;
5121;SDS011;2563;52.242;7.956;2022-12-07T06:01:20;7.50;;;1.67;;
5121;SDS011;2563;52.242;7.956;2022-12-07T06:03:46;7.10;;;1.50;;
5121;SDS011;2563;52.242;7.956;2022-12-07T06:06:11;6.33;;;1.20;;
5121;SDS011;2563;52.242;7.956;2022-12-07T06:08:36;4.90;;;1.13;;
5121;SDS011;2563;52.242;7.956;2022-12-07T06:11:02;4.03;;;1.33;;
5121;SDS011;2563;52.242;7.956;2022-12-07T06:13:46;6.93;;;1.47;;
5121;SDS011;2563;52.242;7.956;2022-12-07T06:16:11;8.93;;;1.30;;
5121;SDS011;2563;52.242;7.956;2022-12-07T06:18:36;10.20;;;1.63;;
5121;SDS011;2563;52.242;7.956;2022-12-07T06:21:02;6.37;;;1.30;;
5121;SDS011;2563;52.242;7.956;2022-12-07T06:23:27;9.37;;;1.00;;
5121;SDS011;2563;52.242;7.956;2022-12-07T06:25:53;8.17;;;1.00;;
5121;SDS011;2563;52.242;7.956;2022-12-07T06:28:18;5.00;;;1.40;;
5121;SDS011;2563;52.242;7.956;2022-12-07T06:30:43;6.03;;;1.33;;
5121;SDS011;2563;52.242;7.956;2022-12-07T06:33:09;4.87;;;1.33;;
5121;SDS011;2563;52.242;7.956;2022-12-07T06:35:34;14.27;;;1.20;;
5121;SDS011;2563;52.242;7.956;2022-12-07T06:38:00;8.07;;;1.57;;
5121;SDS011;2563;52.242;7.956;2022-12-07T06:40:25;6.90;;;1.33;;
5121;SDS011;2563;52.242;7.956;2022-12-07T06:42:51;6.63;;;1.03;;
5121;SDS011;2563;52.242;7.956;2022-12-07T06:45:17;6.13;;;1.10;;
5121;SDS011;2563;52.242;7.956;2022-12-07T06:47:42;4.90;;;1.07;;
5121;SDS011;2563;52.242;7.956;2022-12-07T06:50:08;4.70;;;1.37;;
5121;SDS011;2563;52.242;7.956;2022-12-07T06:52:34;4.20;;;1.03;;
5121;SDS011;2563;52.242;7.956;2022-12-07T06:54:59;6.83;;;1.20;;
5121;SDS011;2563;52.242;7.956;2022-12-07T06:57:25;5.50;;;1.43;;
5121;SDS011;2563;52.242;7.956;2022-12-07T06:59:51;6.30;;;0.70;;
5121;SDS011;2563;52.242;7.956;2022-12-07T07:02:16;3.60;;;1.00;;
5121;SDS011;2563;52.242;7.956;2022-12-07T07:04:42;6.33;;;1.27;;
5121;SDS011;2563;52.242;7.956;2022-12-07T07:07:08;4.33;;;0.90;;
5121;SDS011;2563;52.242;7.956;2022-12-07T07:09:33;6.30;;;1.33;;
5121;SDS011;2563;52.242;7.956;2022-12-07T07:11:59;6.20;;;0.97;;
5121;SDS011;2563;52.242;7.956;2022-12-07T07:14:24;7.93;;;2.07;;
5121;SDS011;2563;52.242;7.956;2022-12-07T07:16:49;5.23;;;0.97;;
5121;SDS011;2563;52.242;7.956;2022-12-07T07:19:15;6.90;;;1.13;;
5121;SDS011;2563;52.242;7.956;2022-12-07T07:21:40;11.03;;;1.20;;
5121;SDS011;2563;52.242;7.956;2022-12-07T07:24:06;5.50;;;1.37;;
5121;SDS011;2563;52.242;7.956;2022-12-07T07:26:31;6.87;;;1.20;;
5121;SDS011;2563;52.242;7.956;2022-12-07T07:28:57;6.93;;;1.30;;
5121;SDS011;2563;52.242;7.956;2022-12-07T07:31:22;8.63;;;2.30;;
5121;SDS011;2563;52.242;7.956;2022-12-07T07:33:47;8.07;;;1.57;;
5121;SDS011;2563;52.242;7.956;2022-12-07T07:36:13;8.93;;;1.47;;
5121;SDS011;2563;52.242;7.956;2022-12-07T07:38:38;12.00;;;2.63;;
5121;SDS011;2563;52.242;7.956;2022-12-07T07:41:04;15.90;;;4.60;;
5121;SDS011;2563;52.242;7.956;2022-12-07T07:43:30;10.07;;;2.80;;
5121;SDS011;2563;52.242;7.956;2022-12-07T07:45:55;9.93;;;3.33;;
5121;SDS011;2563;52.242;7.956;2022-12-07T07:48:20;11.27;;;3.17;;
5121;SDS011;2563;52.242;7.956;2022-12-07T07:50:47;7.60;;;1.77;;
5121;SDS011;2563;52.242;7.956;2022-12-07T07:53:13;15.10;;;4.53;;
5121;SDS011;2563;52.242;7.956;2022-12-07T07:55:38;10.87;;;3.13;;
5121;SDS011;2563;52.242;7.956;2022-12-07T07:58:03;10.77;;;3.00;;
5121;SDS011;2563;52.242;7.956;2022-12-07T08:00:29;11.53;;;3.20;;
5121;SDS011;2563;52.242;7.956;2022-12-07T08:02:54;6.13;;;2.30;;
5121;SDS011;2563;52.242;7.956;2022-12-07T08:05:20;11.23;;;3.07;;
5121;SDS011;2563;52.242;7.956;2022-12-07T08:07:45;4.97;;;1.90;;
5121;SDS011;2563;52.242;7.956;2022-12-07T08:10:12;10.10;;;2.20;;
5121;SDS011;2563;52.242;7.956;2022-12-07T08:12:39;7.33;;;2.13;;
5121;SDS011;2563;52.242;7.956;2022-12-07T08:15:26;7.37;;;2.10;;
5121;SDS011;2563;52.242;7.956;2022-12-07T08:17:53;7.53;;;2.20;;
5121;SDS011;2563;52.242;7.956;2022-12-07T08:20:19;8.53;;;1.80;;
5121;SDS011;2563;52.242;7.956;2022-12-07T08:22:45;14.40;;;3.30;;
5121;SDS011;2563;52.242;7.956;2022-12-07T08:25:10;7.60;;;3.17;;
5121;SDS011;2563;52.242;7.956;2022-12-07T08:27:35;8.57;;;1.73;;
5121;SDS011;2563;52.242;7.956;2022-12-07T08:30:01;16.00;;;2.40;;
5121;SDS011;2563;52.242;7.956;2022-12-07T08:32:26;8.70;;;3.33;;
5121;SDS011;2563;52.242;7.956;2022-12-07T08:34:51;6.40;;;1.73;;
5121;SDS011;2563;52.242;7.956;2022-12-07T08:37:17;5.87;;;1.60;;
5121;SDS011;2563;52.242;7.956;2022-12-07T08:39:43;11.03;;;2.20;;
5121;SDS011;2563;52.242;7.956;2022-12-07T08:42:08;6.20;;;1.80;;
5121;SDS011;2563;52.242;7.956;2022-12-07T08:44:33;13.03;;;2.53;;
5121;SDS011;2563;52.242;7.956;2022-12-07T08:47:00;6.03;;;2.07;;
5121;SDS011;2563;52.242;7.956;2022-12-07T08:49:33;4.47;;;1.47;;
5121;SDS011;2563;52.242;7.956;2022-12-07T08:52:04;5.47;;;1.70;;
5121;SDS011;2563;52.242;7.956;2022-12-07T08:54:30;9.93;;;1.80;;
5121;SDS011;2563;52.242;7.956;2022-12-07T08:56:58;10.30;;;1.90;;
5121;SDS011;2563;52.242;7.956;2022-12-07T08:59:24;4.70;;;1.20;;
5121;SDS011;2563;52.242;7.956;2022-12-07T09:01:50;7.07;;;2.17;;
5121;SDS011;2563;52.242;7.956;2022-12-07T09:04:16;6.97;;;1.50;;
5121;SDS011;2563;52.242;7.956;2022-12-07T09:06:42;5.50;;;1.43;;
5121;SDS011;2563;52.242;7.956;2022-12-07T09:09:07;13.10;;;1.90;;
5121;SDS011;2563;52.242;7.956;2022-12-07T09:11:35;8.30;;;1.90;;
5121;SDS011;2563;52.242;7.956;2022-12-07T09:14:00;7.47;;;1.73;;
5121;SDS011;2563;52.242;7.956;2022-12-07T09:16:25;6.67;;;2.00;;
5121;SDS011;2563;52.242;7.956;2022-12-07T09:18:51;12.33;;;2.47;;
5121;SDS011;2563;52.242;7.956;2022-12-07T09:21:16;15.00;;;1.90;;
5121;SDS011;2563;52.242;7.956;2022-12-07T09:23:42;6.73;;;2.83;;
5121;SDS011;2563;52.242;7.956;2022-12-07T09:26:07;17.83;;;5.27;;
5121;SDS011;2563;52.242;7.956;2022-12-07T09:28:33;7.53;;;2.47;;
5121;SDS011;2563;52.242;7.956;2022-12-07T09:30:59;14.30;;;2.90;;
5121;SDS011;2563;52.242;7.956;2022-12-07T09:33:24;16.60;;;4.57;;
5121;SDS011;2563;52.242;7.956;2022-12-07T09:35:51;18.93;;;3.70;;
5121;SDS011;2563;52.242;7.956;2022-12-07T09:38:17;12.80;;;2.00;;
5121;SDS011;2563;52.242;7.956;2022-12-07T09:40:44;11.13;;;1.90;;
5121;SDS011;2563;52.242;7.956;2022-12-07T09:43:20;7.07;;;1.77;;
5121;SDS011;2563;52.242;7.956;2022-12-07T09:45:53;6.63;;;1.67;;
5121;SDS011;2563;52.242;7.956;2022-12-07T09:48:21;10.23;;;2.30;;
5121;SDS011;2563;52.242;7.956;2022-12-07T09:50:54;10.83;;;1.77;;
5121;SDS011;2563;52.242;7.956;2022-12-07T09:53:43;5.43;;;1.30;;
5121;SDS011;2563;52.242;7.956;2022-12-07T09:56:08;8.10;;;1.80;;
5121;SDS011;2563;52.242;7.956;2022-12-07T09:58:38;5.07;;;1.20;;
5121;SDS011;2563;52.242;7.956;2022-12-07T10:01:20;9.60;;;2.17;;
5121;SDS011;2563;52.242;7.956;2022-12-07T10:03:50;8.67;;;1.63;;
5121;SDS011;2563;52.242;7.956;2022-12-07T10:06:18;8.63;;;3.03;;
5121;SDS011;2563;52.242;7.956;2022-12-07T10:08:43;18.57;;;5.40;;
5121;SDS011;2563;52.242;7.956;2022-12-07T10:11:09;17.93;;;3.27;;
5121;SDS011;2563;52.242;7.956;2022-12-07T10:16:06;10.70;;;3.00;;
5121;SDS011;2563;52.242;7.956;2022-12-07T10:18:52;24.63;;;5.10;;
5121;SDS011;2563;52.242;7.956;2022-12-07T10:21:22;14.93;;;3.93;;
5121;SDS011;2563;52.242;7.956;2022-12-07T10:23:59;14.27;;;3.70;;
5121;SDS011;2563;52.242;7.956;2022-12-07T10:28:59;10.23;;;2.30;;
5121;SDS011;2563;52.242;7.956;2022-12-07T10:31:27;18.90;;;6.80;;
5121;SDS011;2563;52.242;7.956;2022-12-07T10:33:54;6.83;;;2.30;;
5121;SDS011;2563;52.242;7.956;2022-12-07T10:38:50;8.97;;;1.80;;
5121;SDS011;2563;52.242;7.956;2022-12-07T10:41:17;5.47;;;1.70;;
5121;SDS011;2563;52.242;7.956;2022-12-07T10:43:47;12.83;;;3.87;;
5121;SDS011;2563;52.242;7.956;2022-12-07T11:08:01;4.77;;;1.10;;
5121;SDS011;2563;52.242;7.956;2022-12-07T11:10:34;10.43;;;1.20;;
5121;SDS011;2563;52.242;7.956;2022-12-07T11:19:05;10.67;;;1.37;;
5121;SDS011;2563;52.242;7.956;2022-12-07T11:21:45;4.17;;;1.63;;
5121;SDS011;2563;52.242;7.956;2022-12-07T11:26:58;9.20;;;3.50;;
5121;SDS011;2563;52.242;7.956;2022-12-07T11:32:22;8.23;;;2.67;;
5121;SDS011;2563;52.242;7.956;2022-12-07T11:38:26;8.23;;;2.37;;
5121;SDS011;2563;52.242;7.956;2022-12-07T11:41:01;10.40;;;2.17;;
5121;SDS011;2563;52.242;7.956;2022-12-07T11:43:37;12.43;;;3.10;;
5121;SDS011;2563;52.242;7.956;2022-12-07T11:46:43;11.70;;;3.37;;
5121;SDS011;2563;52.242;7.956;2022-12-07T11:51:57;4.70;;;1.30;;
5121;SDS011;2563;52.242;7.956;2022-12-07T11:54:28;5.23;;;0.73;;
5121;SDS011;2563;52.242;7.956;2022-12-07T11:57:00;13.90;;;1.70;;
5121;SDS011;2563;52.242;7.956;2022-12-07T11:59:36;14.30;;;5.57;;
5121;SDS011;2563;52.242;7.956;2022-12-07T12:02:11;17.50;;;5.10;;
5121;SDS011;2563;52.242;7.956;2022-12-07T12:07:12;5.53;;;1.30;;
5121;SDS011;2563;52.242;7.956;2022-12-07T12:09:48;18.47;;;2.50;;
5121;SDS011;2563;52.242;7.956;2022-12-07T12:15:25;5.37;;;1.70;;
5121;SDS011;2563;52.242;7.956;2022-12-07T12:21:25;8.77;;;2.70;;
5121;SDS011;2563;52.242;7.956;2022-12-07T12:23:56;3.27;;;1.30;;
5121;SDS011;2563;52.242;7.956;2022-12-07T12:26:26;10.33;;;2.53;;
5121;SDS011;2563;52.242;7.956;2022-12-07T12:31:40;3.73;;;1.10;;
5121;SDS011;2563;52.242;7.956;2022-12-07T12:37:02;8.00;;;1.50;;
5121;SDS011;2563;52.242;7.956;2022-12-07T12:42:56;9.93;;;1.70;;
5121;SDS011;2563;52.242;7.956;2022-12-07T12:52:58;12.17;;;1.73;;
5121;SDS011;2563;52.242;7.956;2022-12-07T12:55:44;11.23;;;1.50;;
5121;SDS011;2563;52.242;7.956;2022-12-07T13:00:48;10.77;;;1.50;;
5121;SDS011;2563;52.242;7.956;2022-12-07T13:03:52;10.43;;;1.37;;
5121;SDS011;2563;52.242;7.956;2022-12-07T13:08:49;8.70;;;1.40;;
5121;SDS011;2563;52.242;7.956;2022-12-07T13:17:10;7.70;;;1.23;;
5121;SDS011;2563;52.242;7.956;2022-12-07T13:20:00;3.73;;;0.90;;
5121;SDS011;2563;52.242;7.956;2022-12-07T13:27:37;6.00;;;1.20;;
5121;SDS011;2563;52.242;7.956;2022-12-07T13:30:16;8.40;;;1.30;;
5121;SDS011;2563;52.242;7.956;2022-12-07T13:32:50;6.60;;;1.20;;
5121;SDS011;2563;52.242;7.956;2022-12-07T13:35:29;6.40;;;1.23;;
5121;SDS011;2563;52.242;7.956;2022-12-07T13:37:56;8.40;;;1.57;;
5121;SDS011;2563;52.242;7.956;2022-12-07T13:40:22;6.53;;;1.27;;
5121;SDS011;2563;52.242;7.956;2022-12-07T13:42:56;8.47;;;1.53;;
5121;SDS011;2563;52.242;7.956;2022-12-07T13:48:28;4.53;;;1.23;;
5121;SDS011;2563;52.242;7.956;2022-12-07T13:51:00;5.53;;;1.13;;
5121;SDS011;2563;52.242;7.956;2022-12-07T13:53:28;6.90;;;1.50;;
5121;SDS011;2563;52.242;7.956;2022-12-07T13:55:55;12.00;;;3.50;;
5121;SDS011;2563;52.242;7.956;2022-12-07T13:58:23;6.60;;;1.60;;
5121;SDS011;2563;52.242;7.956;2022-12-07T14:00:49;5.97;;;1.50;;
5121;SDS011;2563;52.242;7.956;2022-12-07T14:05:41;6.90;;;1.43;;
5121;SDS011;2563;52.242;7.956;2022-12-07T14:10:40;6.67;;;1.47;;
5121;SDS011;2563;52.242;7.956;2022-12-07T14:15:56;4.87;;;1.23;;
5121;SDS011;2563;52.242;7.956;2022-12-07T14:18:30;4.10;;;1.30;;
5121;SDS011;2563;52.242;7.956;2022-12-07T14:21:24;5.13;;;1.50;;
5121;SDS011;2563;52.242;7.956;2022-12-07T14:24:02;5.57;;;1.40;;
5121;SDS011;2563;52.242;7.956;2022-12-07T14:26:34;13.40;;;1.33;;
5121;SDS011;2563;52.242;7.956;2022-12-07T14:29:22;4.63;;;1.23;;
5121;SDS011;2563;52.242;7.956;2022-12-07T14:31:56;3.67;;;1.10;;
5121;SDS011;2563;52.242;7.956;2022-12-07T14:34:24;8.33;;;1.83;;
5121;SDS011;2563;52.242;7.956;2022-12-07T14:36:50;11.80;;;1.37;;
5121;SDS011;2563;52.242;7.956;2022-12-07T14:39:16;11.67;;;1.40;;
5121;SDS011;2563;52.242;7.956;2022-12-07T14:41:41;15.67;;;1.53;;
5121;SDS011;2563;52.242;7.956;2022-12-07T14:44:16;11.63;;;1.30;;
5121;SDS011;2563;52.242;7.956;2022-12-07T14:46:42;9.70;;;1.80;;
5121;SDS011;2563;52.242;7.956;2022-12-07T14:49:07;6.50;;;1.43;;
5121;SDS011;2563;52.242;7.956;2022-12-07T14:51:33;4.57;;;1.10;;
5121;SDS011;2563;52.242;7.956;2022-12-07T14:54:03;8.30;;;0.90;;
5121;SDS011;2563;52.242;7.956;2022-12-07T14:56:30;6.90;;;1.70;;
5121;SDS011;2563;52.242;7.956;2022-12-07T14:58:55;6.60;;;1.33;;
5121;SDS011;2563;52.242;7.956;2022-12-07T15:01:21;8.53;;;1.30;;
5121;SDS011;2563;52.242;7.956;2022-12-07T15:03:46;6.33;;;1.10;;
5121;SDS011;2563;52.242;7.956;2022-12-07T15:06:16;4.23;;;1.03;;
5121;SDS011;2563;52.242;7.956;2022-12-07T15:08:43;6.23;;;1.97;;
5121;SDS011;2563;52.242;7.956;2022-12-07T15:11:12;6.37;;;2.00;;
5121;SDS011;2563;52.242;7.956;2022-12-07T15:13:39;7.10;;;2.40;;
5121;SDS011;2563;52.242;7.956;2022-12-07T15:16:23;7.83;;;3.83;;
5121;SDS011;2563;52.242;7.956;2022-12-07T15:18:48;11.80;;;5.13;;
5121;SDS011;2563;52.242;7.956;2022-12-07T15:21:14;11.70;;;3.33;;
5121;SDS011;2563;52.242;7.956;2022-12-07T15:23:39;5.57;;;2.27;;
5121;SDS011;2563;52.242;7.956;2022-12-07T15:26:05;5.90;;;2.20;;
5121;SDS011;2563;52.242;7.956;2022-12-07T15:28:30;15.73;;;3.20;;
5121;SDS011;2563;52.242;7.956;2022-12-07T15:30:56;11.13;;;2.50;;
5121;SDS011;2563;52.242;7.956;2022-12-07T15:33:21;12.60;;;5.27;;
5121;SDS011;2563;52.242;7.956;2022-12-07T15:35:47;9.10;;;4.63;;
5121;SDS011;2563;52.242;7.956;2022-12-07T15:38:12;8.93;;;2.27;;
5121;SDS011;2563;52.242;7.956;2022-12-07T15:40:37;5.97;;;1.77;;
5121;SDS011;2563;52.242;7.956;2022-12-07T15:43:03;8.70;;;2.47;;
5121;SDS011;2563;52.242;7.956;2022-12-07T15:45:29;23.20;;;3.53;;
5121;SDS011;2563;52.242;7.956;2022-12-07T15:47:54;10.67;;;2.70;;
5121;SDS011;2563;52.242;7.956;2022-12-07T15:50:20;6.00;;;2.40;;
5121;SDS011;2563;52.242;7.956;2022-12-07T15:52:46;9.83;;;2.87;;
5121;SDS011;2563;52.242;7.956;2022-12-07T15:55:12;18.17;;;3.90;;
5121;SDS011;2563;52.242;7.956;2022-12-07T15:57:37;7.63;;;3.10;;
5121;SDS011;2563;52.242;7.956;2022-12-07T16:00:04;12.43;;;2.67;;
5121;SDS011;2563;52.242;7.956;2022-12-07T16:02:30;13.40;;;2.60;;
5121;SDS011;2563;52.242;7.956;2022-12-07T16:04:56;10.27;;;3.37;;
5121;SDS011;2563;52.242;7.956;2022-12-07T16:07:21;9.07;;;2.10;;
5121;SDS011;2563;52.242;7.956;2022-12-07T16:09:47;7.57;;;2.23;;
5121;SDS011;2563;52.242;7.956;2022-12-07T16:12:14;9.17;;;1.70;;
5121;SDS011;2563;52.242;7.956;2022-12-07T16:14:43;8.47;;;1.73;;
5121;SDS011;2563;52.242;7.956;2022-12-07T16:17:09;9.43;;;2.43;;
5121;SDS011;2563;52.242;7.956;2022-12-07T16:19:35;9.53;;;2.20;;
5121;SDS011;2563;52.242;7.956;2022-12-07T16:22:01;6.67;;;2.30;;
5121;SDS011;2563;52.242;7.956;2022-12-07T16:24:28;5.40;;;2.10;;
5121;SDS011;2563;52.242;7.956;2022-12-07T16:26:53;5.57;;;1.50;;
5121;SDS011;2563;52.242;7.956;2022-12-07T16:29:19;6.50;;;1.67;;
5121;SDS011;2563;52.242;7.956;2022-12-07T16:31:46;6.23;;;1.47;;
5121;SDS011;2563;52.242;7.956;2022-12-07T16:34:12;9.23;;;2.80;;
5121;SDS011;2563;52.242;7.956;2022-12-07T16:36:38;11.47;;;2.70;;
5121;SDS011;2563;52.242;7.956;2022-12-07T16:39:04;9.47;;;2.37;;
5121;SDS011;2563;52.242;7.956;2022-12-07T16:41:30;6.50;;;1.47;;
5121;SDS011;2563;52.242;7.956;2022-12-07T16:43:55;8.53;;;3.00;;
5121;SDS011;2563;52.242;7.956;2022-12-07T16:46:20;7.77;;;1.67;;
5121;SDS011;2563;52.242;7.956;2022-12-07T16:48:46;9.20;;;2.80;;
5121;SDS011;2563;52.242;7.956;2022-12-07T16:51:12;7.33;;;1.77;;
5121;SDS011;2563;52.242;7.956;2022-12-07T16:53:39;7.30;;;1.90;;
5121;SDS011;2563;52.242;7.956;2022-12-07T16:56:09;8.77;;;2.33;;
5121;SDS011;2563;52.242;7.956;2022-12-07T16:58:36;5.63;;;2.07;;
5121;SDS011;2563;52.242;7.956;2022-12-07T17:03:41;8.30;;;3.37;;
5121;SDS011;2563;52.242;7.956;2022-12-07T17:06:11;12.53;;;2.10;;
5121;SDS011;2563;52.242;7.956;2022-12-07T17:08:38;5.10;;;1.70;;
5121;SDS011;2563;52.242;7.956;2022-12-07T17:11:08;10.70;;;2.20;;
5121;SDS011;2563;52.242;7.956;2022-12-07T17:13:45;9.13;;;1.53;;
5121;SDS011;2563;52.242;7.956;2022-12-07T17:16:29;8.60;;;2.00;;
5121;SDS011;2563;52.242;7.956;2022-12-07T17:18:55;4.00;;;1.40;;
5121;SDS011;2563;52.242;7.956;2022-12-07T17:21:20;4.30;;;1.40;;
5121;SDS011;2563;52.242;7.956;2022-12-07T17:23:46;7.17;;;2.17;;
5121;SDS011;2563;52.242;7.956;2022-12-07T17:26:13;6.20;;;2.47;;
5121;SDS011;2563;52.242;7.956;2022-12-07T17:28:41;7.80;;;2.60;;
5121;SDS011;2563;52.242;7.956;2022-12-07T17:31:08;11.73;;;3.93;;
5121;SDS011;2563;52.242;7.956;2022-12-07T17:33:34;10.67;;;3.73;;
5121;SDS011;2563;52.242;7.956;2022-12-07T17:36:01;6.10;;;2.30;;